Terminal Aerodrome Forecast
Issued by NWS Chicago, IL

Home | Current Version | Previous Version | Text Only | Print | Product List | Glossary On
Versions: 1 2 3 4 5 6 7 8 9 10 11 12 13 14 15 16 17 18 19 20 21 22 23 24
280
FTUS43 KLOT 260535
TAFRFD
TAF
KRFD 260535Z 2606/2706 19003KT P6SM SKC
     FM261600 24008KT P6SM FEW250
     FM262000 24009KT P6SM BKN250
     FM270500 35013G20KT P6SM SCT020 BKN050 OVC080=

USA.gov is the U.S. government's official web portal to all federal, state and local government web resources and services.